createdAt,value
2023-03-30T00:00:14.004Z,100880.38
2023-03-30T00:02:44.469Z,100884.78
2023-03-30T00:05:13.888Z,100882.53
2023-03-30T00:07:43.249Z,100879.34
2023-03-30T00:10:12.889Z,100876.78
2023-03-30T00:12:40.878Z,100884.63
2023-03-30T00:15:12.304Z,100871.84
2023-03-30T00:17:41.320Z,100873.50
2023-03-30T00:20:12.996Z,100874.97
2023-03-30T00:22:41.384Z,100867.38
2023-03-30T00:25:11.602Z,100873.69
2023-03-30T00:27:40.293Z,100862.97
2023-03-30T00:30:11.538Z,100857.91
2023-03-30T00:32:39.705Z,100848.72
2023-03-30T00:35:08.564Z,100852.44
2023-03-30T00:37:38.388Z,100849.59
2023-03-30T00:40:08.124Z,100844.91
2023-03-30T00:42:36.231Z,100841.00
2023-03-30T00:45:17.820Z,100836.84
2023-03-30T00:47:51.718Z,100840.34
2023-03-30T00:50:22.954Z,100828.81
2023-03-30T00:52:55.688Z,100825.75
2023-03-30T00:55:27.235Z,100806.63
2023-03-30T00:57:56.430Z,100808.06
2023-03-30T01:00:24.696Z,100810.88
2023-03-30T01:02:58.903Z,100805.53
2023-03-30T01:05:28.418Z,100798.22
2023-03-30T01:08:01.074Z,100787.97
2023-03-30T01:10:29.016Z,100789.47
2023-03-30T01:12:56.992Z,100780.84
2023-03-30T01:15:25.434Z,100775.59
2023-03-30T01:18:08.783Z,100769.88
2023-03-30T01:21:00.133Z,100767.09
2023-03-30T01:23:54.204Z,100766.63
2023-03-30T01:26:46.385Z,100748.78
2023-03-30T01:29:25.038Z,100742.41
2023-03-30T01:32:29.611Z,100735.81
2023-03-30T01:35:22.579Z,100744.66
2023-03-30T01:38:35.890Z,100740.25
2023-03-30T01:41:13.378Z,100736.09
2023-03-30T01:43:50.021Z,100728.31
2023-03-30T01:46:25.472Z,100720.09
2023-03-30T01:49:02.972Z,100714.63
2023-03-30T01:51:36.704Z,100714.75
2023-03-30T01:54:08.927Z,100709.34
2023-03-30T01:56:43.135Z,100705.84
2023-03-30T01:59:17.582Z,100705.47
2023-03-30T02:01:50.334Z,100705.13
2023-03-30T02:04:22.955Z,100710.84
2023-03-30T02:06:56.898Z,100715.06
2023-03-30T02:09:27.725Z,100720.47
2023-03-30T02:11:57.909Z,100711.66
2023-03-30T02:14:31.177Z,100705.50
2023-03-30T02:17:01.781Z,100700.69
2023-03-30T02:19:30.192Z,100708.91
2023-03-30T02:21:59.124Z,100699.47
2023-03-30T02:24:30.583Z,100681.22
2023-03-30T02:27:01.977Z,100686.38
2023-03-30T02:29:30.199Z,100676.09
2023-03-30T02:32:00.575Z,100669.50
2023-03-30T02:34:43.834Z,100685.94
2023-03-30T02:37:32.582Z,100667.25
2023-03-30T02:40:17.141Z,100662.97
2023-03-30T02:42:59.985Z,100659.75
2023-03-30T02:45:42.046Z,100658.00
2023-03-30T02:48:22.330Z,100647.63
2023-03-30T02:51:00.161Z,100638.13
2023-03-30T02:54:17.975Z,100643.91
2023-03-30T02:57:28.487Z,100640.56
2023-03-30T03:00:13.519Z,100628.16
2023-03-30T03:02:46.077Z,100632.56
2023-03-30T03:05:26.245Z,100621.81
2023-03-30T03:08:04.490Z,100618.28
2023-03-30T03:10:36.312Z,100621.88
2023-03-30T03:13:04.995Z,100609.03
2023-03-30T03:15:35.583Z,100612.09
2023-03-30T03:18:13.107Z,100612.19
2023-03-30T03:20:42.926Z,100606.13
2023-03-30T03:23:10.964Z,100609.66
2023-03-30T03:25:49.442Z,100613.06
2023-03-30T03:28:19.805Z,100598.06
2023-03-30T03:30:52.349Z,100608.41
2023-03-30T03:33:24.196Z,100598.81
2023-03-30T03:36:24.475Z,100590.41
2023-03-30T03:38:54.723Z,100584.09
2023-03-30T03:41:22.746Z,100586.44
2023-03-30T03:43:51.037Z,100585.97
2023-03-30T03:46:22.239Z,100581.47
2023-03-30T03:48:50.189Z,100578.66
2023-03-30T03:51:18.356Z,100576.41
2023-03-30T03:53:49.649Z,100567.75
2023-03-30T03:56:17.674Z,100550.97
2023-03-30T03:58:45.638Z,100555.16
2023-03-30T04:01:14.451Z,100555.53
2023-03-30T04:03:44.061Z,100550.66
2023-03-30T04:06:11.972Z,100536.53
2023-03-30T04:08:39.821Z,100528.38
2023-03-30T04:11:29.893Z,100524.31
2023-03-30T04:14:23.147Z,100521.09
2023-03-30T04:17:07.623Z,100523.09
2023-03-30T04:19:55.433Z,100520.16
2023-03-30T04:22:36.920Z,100520.22
2023-03-30T04:25:26.723Z,100513.47
2023-03-30T04:28:13.352Z,100514.50
2023-03-30T04:31:00.247Z,100507.66
2023-03-30T04:33:52.003Z,100512.13
2023-03-30T04:36:44.668Z,100505.13
2023-03-30T04:39:21.738Z,100505.44
2023-03-30T04:42:14.272Z,100519.81
2023-03-30T04:45:21.122Z,100504.41
2023-03-30T04:48:10.686Z,100505.13
2023-03-30T04:51:06.222Z,100500.44
2023-03-30T04:53:50.394Z,100498.56
2023-03-30T04:56:38.528Z,100503.63
2023-03-30T04:59:24.654Z,100502.91
2023-03-30T05:02:12.069Z,100503.75
2023-03-30T05:05:03.309Z,100506.38
2023-03-30T05:07:50.208Z,100493.00
2023-03-30T05:10:30.557Z,100492.00
2023-03-30T05:13:16.932Z,100483.03
2023-03-30T05:15:55.648Z,100475.41
2023-03-30T05:18:47.344Z,100476.28
2023-03-30T05:21:24.145Z,100448.31
2023-03-30T05:23:58.360Z,100454.72
2023-03-30T05:26:53.703Z,100449.44
2023-03-30T05:29:51.760Z,100439.84
2023-03-30T05:32:35.307Z,100434.81
2023-03-30T05:35:38.819Z,100447.47
2023-03-30T05:38:19.174Z,100454.22
2023-03-30T05:41:03.187Z,100455.16
2023-03-30T05:43:51.190Z,100444.44
2023-03-30T05:46:51.205Z,100450.25
2023-03-30T05:49:37.617Z,100444.09
2023-03-30T05:52:28.709Z,100434.63
2023-03-30T05:55:06.751Z,100424.00
2023-03-30T05:57:47.363Z,100425.66
2023-03-30T06:00:28.921Z,100428.09
2023-03-30T06:03:06.192Z,100419.94
2023-03-30T06:05:35.946Z,100418.94
2023-03-30T06:08:05.576Z,100408.94
2023-03-30T06:10:33.568Z,100403.66
2023-03-30T06:13:01.684Z,100399.78
2023-03-30T06:15:42.170Z,100400.16
2023-03-30T06:18:13.993Z,100405.44
2023-03-30T06:20:49.773Z,100396.28
2023-03-30T06:23:18.204Z,100385.56
2023-03-30T06:25:47.517Z,100389.44
2023-03-30T06:28:16.126Z,100374.69
2023-03-30T06:30:45.694Z,100373.00
2023-03-30T06:33:14.260Z,100374.78
2023-03-30T06:35:51.743Z,100383.63
2023-03-30T06:38:24.095Z,100378.00
2023-03-30T06:40:54.004Z,100375.19
2023-03-30T06:43:26.326Z,100378.25
2023-03-30T06:46:09.509Z,100377.81
2023-03-30T06:48:37.516Z,100385.91
2023-03-30T06:51:25.568Z,100379.53
2023-03-30T06:53:54.786Z,100371.63
2023-03-30T06:56:23.163Z,100376.09
2023-03-30T06:59:05.413Z,100369.19
2023-03-30T07:01:39.824Z,100363.63
2023-03-30T07:04:34.639Z,100360.28
2023-03-30T07:07:23.089Z,100355.44
2023-03-30T07:09:51.256Z,100352.75
2023-03-30T07:12:19.173Z,100334.75
2023-03-30T07:14:48.312Z,100324.44
2023-03-30T07:17:18.433Z,100332.28
2023-03-30T07:19:46.415Z,100323.66
2023-03-30T07:22:14.475Z,100332.16
2023-03-30T07:24:42.626Z,100318.97
2023-03-30T07:27:10.759Z,100322.81
2023-03-30T07:29:41.269Z,100313.97
2023-03-30T07:32:09.206Z,100298.97
2023-03-30T07:34:38.730Z,100299.03
2023-03-30T07:37:08.021Z,100285.66
2023-03-30T07:39:37.194Z,100288.34
2023-03-30T07:42:06.522Z,100296.53
2023-03-30T07:44:34.799Z,100284.16
2023-03-30T07:47:07.565Z,100284.03
2023-03-30T07:49:38.728Z,100284.31
2023-03-30T07:52:07.309Z,100288.38
2023-03-30T07:54:47.223Z,100279.09
2023-03-30T07:57:22.129Z,100278.91
2023-03-30T07:59:50.739Z,100267.47
2023-03-30T08:02:37.871Z,100273.25
2023-03-30T08:05:11.306Z,100279.88
2023-03-30T08:08:02.443Z,100286.56
2023-03-30T08:10:34.353Z,100284.94
2023-03-30T08:13:03.526Z,100274.66
2023-03-30T08:15:31.445Z,100268.25
2023-03-30T08:18:04.330Z,100268.44
2023-03-30T08:20:34.828Z,100276.63
2023-03-30T08:23:03.043Z,100268.16
2023-03-30T08:25:31.260Z,100255.63
2023-03-30T08:27:59.078Z,100253.88
2023-03-30T08:30:27.150Z,100239.81
2023-03-30T08:32:55.213Z,100234.88
2023-03-30T08:35:23.611Z,100237.22
2023-03-30T08:37:53.908Z,100230.22
2023-03-30T08:40:22.615Z,100234.13
2023-03-30T08:43:10.402Z,100233.94
2023-03-30T08:45:42.639Z,100244.88
2023-03-30T08:48:17.739Z,100252.41
2023-03-30T08:50:53.536Z,100246.56
2023-03-30T08:53:23.003Z,100232.91
2023-03-30T08:55:54.539Z,100222.25
2023-03-30T08:58:31.933Z,100230.72
2023-03-30T09:01:09.261Z,100230.38
2023-03-30T09:03:43.599Z,100217.22
2023-03-30T09:06:20.403Z,100236.56
2023-03-30T09:08:50.422Z,100229.91
2023-03-30T09:11:26.083Z,100224.69
2023-03-30T09:13:56.106Z,100225.44
2023-03-30T09:16:34.412Z,100225.69
2023-03-30T09:19:04.316Z,100218.41
2023-03-30T09:21:33.014Z,100215.53
2023-03-30T09:24:12.667Z,100215.88
2023-03-30T09:26:50.874Z,100210.72
2023-03-30T09:29:21.200Z,100213.00
2023-03-30T09:31:52.968Z,100218.69
2023-03-30T09:34:28.440Z,100215.72
2023-03-30T09:37:00.877Z,100221.31
2023-03-30T09:39:33.481Z,100223.44
2023-03-30T09:42:16.283Z,100226.91
2023-03-30T09:44:49.265Z,100224.47
2023-03-30T09:47:20.811Z,100231.22
2023-03-30T09:49:48.785Z,100234.78
2023-03-30T09:52:21.951Z,100230.94
2023-03-30T09:54:51.343Z,100225.44
2023-03-30T09:57:28.659Z,100218.97
2023-03-30T09:59:57.594Z,100231.28
2023-03-30T10:02:28.644Z,100234.47
2023-03-30T10:05:00.431Z,100244.09
2023-03-30T10:07:31.114Z,100233.16
2023-03-30T10:10:02.495Z,100241.31
2023-03-30T10:12:32.022Z,100247.50
2023-03-30T10:15:04.261Z,100237.00
2023-03-30T10:17:32.733Z,100250.53
2023-03-30T10:20:23.668Z,100254.28
2023-03-30T10:22:53.672Z,100252.31
2023-03-30T10:25:25.387Z,100260.56
2023-03-30T10:27:56.573Z,100256.91
2023-03-30T10:30:28.322Z,100254.03
2023-03-30T10:32:59.950Z,100259.06
2023-03-30T10:35:34.083Z,100246.06
2023-03-30T10:38:03.459Z,100240.31
2023-03-30T10:40:37.664Z,100239.38
2023-03-30T10:43:09.606Z,100238.50
2023-03-30T10:45:41.759Z,100232.44
2023-03-30T10:48:23.447Z,100232.16
2023-03-30T10:50:57.505Z,100228.97
2023-03-30T10:53:34.930Z,100229.53
2023-03-30T10:56:17.345Z,100216.63
2023-03-30T10:59:06.105Z,100211.06
2023-03-30T11:01:42.970Z,100219.16
2023-03-30T11:04:23.665Z,100218.81
2023-03-30T11:06:56.881Z,100216.38
2023-03-30T11:09:30.114Z,100212.88
2023-03-30T11:12:04.249Z,100206.66
2023-03-30T11:14:40.910Z,100214.97
2023-03-30T11:17:13.914Z,100221.56
2023-03-30T11:19:48.132Z,100220.25
2023-03-30T11:22:25.377Z,100205.53
2023-03-30T11:24:56.809Z,100214.63
2023-03-30T11:27:30.840Z,100217.84
2023-03-30T11:30:04.805Z,100209.56
2023-03-30T11:32:39.171Z,100212.91
2023-03-30T11:35:15.323Z,100205.78
2023-03-30T11:37:49.380Z,100203.56
2023-03-30T11:40:19.465Z,100195.28
2023-03-30T11:42:49.758Z,100190.28
2023-03-30T11:45:23.084Z,100179.91
2023-03-30T11:48:05.415Z,100169.03
2023-03-30T11:50:45.895Z,100158.78
2023-03-30T11:53:24.811Z,100163.88
2023-03-30T11:56:11.477Z,100157.59
2023-03-30T11:58:47.104Z,100152.66
2023-03-30T12:01:32.812Z,100148.97
2023-03-30T12:04:07.931Z,100141.56
2023-03-30T12:06:41.735Z,100137.47
2023-03-30T12:09:28.834Z,100127.44
2023-03-30T12:12:04.377Z,100124.13
2023-03-30T12:14:48.623Z,100115.94
2023-03-30T12:17:30.583Z,100110.16
2023-03-30T12:20:04.514Z,100104.09
2023-03-30T12:22:38.064Z,100095.84
2023-03-30T12:25:17.437Z,100090.44
2023-03-30T12:27:59.925Z,100095.38
2023-03-30T12:30:32.453Z,100088.53
2023-03-30T12:33:12.118Z,100084.75
2023-03-30T12:35:58.345Z,100084.88
2023-03-30T12:38:29.881Z,100070.22
2023-03-30T12:41:14.601Z,100068.97
2023-03-30T12:44:04.226Z,100060.25
2023-03-30T12:46:41.879Z,100053.06
2023-03-30T12:49:18.807Z,100036.38
2023-03-30T12:52:05.077Z,100036.25
2023-03-30T12:55:01.082Z,100033.41
2023-03-30T12:57:39.330Z,100025.81
2023-03-30T13:00:41.015Z,100018.69
2023-03-30T13:03:32.300Z,100018.09
2023-03-30T13:06:02.583Z,100016.66
2023-03-30T13:08:36.464Z,100003.22
2023-03-30T13:11:18.516Z,99992.00
2023-03-30T13:13:57.304Z,99998.28
2023-03-30T13:16:47.960Z,99996.16
2023-03-30T13:19:25.857Z,100002.22
2023-03-30T13:21:58.855Z,99982.72
2023-03-30T13:24:36.903Z,100000.25
2023-03-30T13:27:31.703Z,99989.81
2023-03-30T13:30:03.957Z,99989.78
2023-03-30T13:33:00.340Z,99991.47
2023-03-30T13:35:41.894Z,100002.41
2023-03-30T13:38:34.086Z,99990.34
2023-03-30T13:41:14.514Z,100000.53
2023-03-30T13:43:53.056Z,100016.00
2023-03-30T13:46:30.145Z,100043.41
2023-03-30T13:49:18.471Z,100044.97
2023-03-30T13:51:49.172Z,100094.28
2023-03-30T13:54:21.407Z,100156.09
2023-03-30T13:56:55.436Z,100190.25
2023-03-30T13:59:28.490Z,100220.28
2023-03-30T14:02:02.453Z,100223.31
2023-03-30T14:04:32.900Z,100178.41
2023-03-30T14:07:16.132Z,100143.00
2023-03-30T14:10:02.875Z,100158.00
2023-03-30T14:12:32.721Z,100160.94
2023-03-30T14:15:01.176Z,100161.25
2023-03-30T14:17:32.259Z,100183.22
2023-03-30T14:20:16.393Z,100183.63
2023-03-30T14:22:48.273Z,100192.34
2023-03-30T14:25:28.788Z,100191.81
2023-03-30T14:27:58.402Z,100177.56
2023-03-30T14:30:29.720Z,100175.94
2023-03-30T14:33:09.306Z,100157.47
2023-03-30T14:35:42.500Z,100165.41
2023-03-30T14:38:17.211Z,100152.41
2023-03-30T14:40:45.682Z,100154.78
2023-03-30T14:43:15.801Z,100151.72
2023-03-30T14:45:44.209Z,100151.56
2023-03-30T14:48:21.222Z,100155.72
2023-03-30T14:50:50.031Z,100160.50
2023-03-30T14:53:25.193Z,100163.19
2023-03-30T14:55:57.163Z,100165.72
2023-03-30T14:58:26.847Z,100160.13
2023-03-30T15:00:58.723Z,100162.09
2023-03-30T15:03:33.784Z,100158.53
2023-03-30T15:06:03.345Z,100160.81
2023-03-30T15:08:37.373Z,100159.16
2023-03-30T15:11:10.178Z,100164.81
2023-03-30T15:13:41.846Z,100163.34
2023-03-30T15:16:15.615Z,100163.50
2023-03-30T15:18:43.792Z,100169.06
2023-03-30T15:21:13.981Z,100173.09
2023-03-30T15:23:45.779Z,100175.84
2023-03-30T15:26:14.304Z,100181.41
2023-03-30T15:28:46.846Z,100189.31
2023-03-30T15:31:16.345Z,100185.59
2023-03-30T15:33:46.599Z,100187.16
2023-03-30T15:36:19.499Z,100199.25
2023-03-30T15:38:54.405Z,100203.91
2023-03-30T15:41:24.960Z,100207.25
2023-03-30T15:43:58.130Z,100208.91
2023-03-30T15:46:27.984Z,100203.25
2023-03-30T15:48:59.506Z,100210.78
2023-03-30T15:51:33.144Z,100210.28
2023-03-30T15:54:04.347Z,100213.31
2023-03-30T15:56:38.136Z,100214.88
2023-03-30T15:59:11.629Z,100209.41
2023-03-30T16:01:45.334Z,100208.75
2023-03-30T16:04:16.158Z,100208.03
2023-03-30T16:06:46.669Z,100200.09
2023-03-30T16:09:16.951Z,100201.88
2023-03-30T16:11:46.456Z,100207.94
2023-03-30T16:14:16.250Z,100207.06
2023-03-30T16:16:45.000Z,100215.84
2023-03-30T16:19:13.623Z,100210.44
2023-03-30T16:21:43.292Z,100210.28
2023-03-30T16:24:13.239Z,100210.16
2023-03-30T16:26:42.687Z,100211.53
2023-03-30T16:29:19.661Z,100199.19
2023-03-30T16:31:47.751Z,100205.56
2023-03-30T16:34:15.856Z,100207.81
2023-03-30T16:36:44.130Z,100210.97
2023-03-30T16:39:17.962Z,100209.19
2023-03-30T16:41:48.317Z,100216.78
2023-03-30T16:44:16.967Z,100213.94
2023-03-30T16:46:45.343Z,100207.88
2023-03-30T16:49:15.443Z,100211.53
2023-03-30T16:51:44.064Z,100213.50
2023-03-30T16:54:27.224Z,100211.91
2023-03-30T16:57:00.438Z,100212.56
2023-03-30T16:59:30.366Z,100217.97
2023-03-30T17:01:58.922Z,100213.38
2023-03-30T17:04:27.073Z,100218.53
2023-03-30T17:06:55.759Z,100219.75
2023-03-30T17:09:24.412Z,100215.88
2023-03-30T17:11:52.442Z,100213.44
2023-03-30T17:14:23.321Z,100218.13
2023-03-30T17:16:51.505Z,100220.03
2023-03-30T17:19:19.538Z,100226.91
2023-03-30T17:21:47.582Z,100224.91
2023-03-30T17:24:16.972Z,100230.94
2023-03-30T17:26:45.103Z,100227.69
2023-03-30T17:29:13.026Z,100240.41
2023-03-30T17:31:45.734Z,100251.63
2023-03-30T17:34:14.633Z,100250.34
2023-03-30T17:36:42.737Z,100255.75
2023-03-30T17:39:13.961Z,100257.59
2023-03-30T17:41:42.210Z,100265.69
2023-03-30T17:44:10.148Z,100271.75
2023-03-30T17:46:38.058Z,100274.81
2023-03-30T17:49:16.804Z,100273.44
2023-03-30T17:51:44.776Z,100273.44
2023-03-30T17:54:12.700Z,100276.44
2023-03-30T17:56:40.635Z,100288.13
2023-03-30T17:59:11.290Z,100278.63
2023-03-30T18:01:39.335Z,100283.84
2023-03-30T18:04:09.190Z,100279.47
2023-03-30T18:06:37.299Z,100285.78
2023-03-30T18:09:05.370Z,100288.94
2023-03-30T18:11:33.686Z,100302.97
2023-03-30T18:14:02.094Z,100299.66
2023-03-30T18:16:30.996Z,100302.28
2023-03-30T18:18:59.404Z,100291.38
2023-03-30T18:21:28.811Z,100297.31
2023-03-30T18:23:56.991Z,100287.69
2023-03-30T18:26:24.952Z,100285.94
2023-03-30T18:28:52.812Z,100282.53
2023-03-30T18:31:20.994Z,100283.63
2023-03-30T18:33:50.458Z,100297.91
2023-03-30T18:36:21.407Z,100294.84
2023-03-30T18:38:50.721Z,100294.00
2023-03-30T18:41:18.907Z,100295.63
2023-03-30T18:43:46.841Z,100301.91
2023-03-30T18:46:14.820Z,100310.00
2023-03-30T18:48:42.832Z,100316.44
2023-03-30T18:51:12.055Z,100317.50
2023-03-30T18:53:40.009Z,100326.41
2023-03-30T18:56:13.628Z,100325.34
2023-03-30T18:58:42.791Z,100329.22
2023-03-30T19:01:13.268Z,100320.19
2023-03-30T19:03:42.170Z,100324.19
2023-03-30T19:06:13.800Z,100327.03
2023-03-30T19:08:43.544Z,100361.78
2023-03-30T19:11:14.907Z,100373.69
2023-03-30T19:13:42.812Z,100406.25
2023-03-30T19:16:11.234Z,100381.75
2023-03-30T19:18:39.221Z,100388.25
2023-03-30T19:21:07.339Z,100395.31
2023-03-30T19:23:35.693Z,100398.72
2023-03-30T19:26:03.711Z,100411.03
2023-03-30T19:28:33.336Z,100401.41
2023-03-30T19:31:05.376Z,100404.78
2023-03-30T19:33:33.485Z,100411.47
2023-03-30T19:36:01.374Z,100411.06
2023-03-30T19:38:29.408Z,100407.34
2023-03-30T19:41:01.290Z,100400.09
2023-03-30T19:43:29.710Z,100402.41
2023-03-30T19:45:58.986Z,100394.03
2023-03-30T19:48:27.346Z,100382.28
2023-03-30T19:50:55.361Z,100376.41
2023-03-30T19:53:23.980Z,100367.50
2023-03-30T19:55:52.020Z,100367.00
2023-03-30T19:58:20.038Z,100380.34
2023-03-30T20:00:49.622Z,100379.22
2023-03-30T20:03:19.301Z,100389.63
2023-03-30T20:05:51.166Z,100378.53
2023-03-30T20:08:24.390Z,100384.00
2023-03-30T20:10:53.672Z,100378.66
2023-03-30T20:13:23.926Z,100380.41
2023-03-30T20:15:55.873Z,100384.09
2023-03-30T20:18:25.426Z,100397.06
2023-03-30T20:20:53.625Z,100395.63
2023-03-30T20:23:21.545Z,100394.25
2023-03-30T20:25:56.695Z,100392.09
2023-03-30T20:28:24.704Z,100396.19
2023-03-30T20:30:56.464Z,100398.44
2023-03-30T20:33:26.234Z,100398.16
2023-03-30T20:35:55.073Z,100397.44
2023-03-30T20:38:23.037Z,100401.97
2023-03-30T20:40:56.302Z,100398.81
2023-03-30T20:43:25.928Z,100403.50
2023-03-30T20:46:02.407Z,100407.78
2023-03-30T20:48:33.754Z,100402.97
2023-03-30T20:51:03.667Z,100398.44
2023-03-30T20:53:32.209Z,100403.56
2023-03-30T20:56:00.542Z,100395.34
2023-03-30T20:58:29.546Z,100393.50
2023-03-30T21:00:58.999Z,100393.09
2023-03-30T21:03:29.229Z,100392.38
2023-03-30T21:06:04.079Z,100398.59
2023-03-30T21:08:33.315Z,100390.81
2023-03-30T21:11:02.233Z,100385.44
2023-03-30T21:13:30.471Z,100377.81
2023-03-30T21:15:58.975Z,100379.53
2023-03-30T21:18:27.188Z,100375.13
2023-03-30T21:20:55.315Z,100386.00
2023-03-30T21:23:26.766Z,100386.16
2023-03-30T21:25:57.310Z,100381.50
2023-03-30T21:28:27.236Z,100378.06
2023-03-30T21:30:56.717Z,100368.78
2023-03-30T21:33:26.239Z,100368.09
2023-03-30T21:35:54.999Z,100377.53
2023-03-30T21:38:26.236Z,100365.66
2023-03-30T21:40:58.889Z,100370.63
2023-03-30T21:43:27.377Z,100366.34
2023-03-30T21:45:56.729Z,100367.66
2023-03-30T21:48:25.278Z,100356.25
2023-03-30T21:50:59.801Z,100361.44
2023-03-30T21:53:30.619Z,100353.22
2023-03-30T21:55:58.754Z,100364.38
2023-03-30T21:58:27.765Z,100356.78
2023-03-30T22:01:08.948Z,100350.25
2023-03-30T22:03:41.297Z,100353.53
2023-03-30T22:06:11.054Z,100351.84
2023-03-30T22:08:40.451Z,100346.19
2023-03-30T22:11:10.325Z,100343.63
2023-03-30T22:13:38.507Z,100340.19
2023-03-30T22:16:09.173Z,100338.56
2023-03-30T22:18:37.371Z,100338.38
2023-03-30T22:21:07.613Z,100337.38
2023-03-30T22:23:36.126Z,100332.25
2023-03-30T22:26:06.616Z,100330.88
2023-03-30T22:28:35.042Z,100320.28
2023-03-30T22:31:03.463Z,100322.94
2023-03-30T22:33:31.687Z,100325.19
2023-03-30T22:35:59.962Z,100336.72
2023-03-30T22:38:27.995Z,100320.94
2023-03-30T22:41:05.484Z,100319.84
2023-03-30T22:43:36.200Z,100324.41
2023-03-30T22:46:04.497Z,100313.97
2023-03-30T22:48:33.328Z,100321.63
2023-03-30T22:51:03.261Z,100315.06
2023-03-30T22:53:32.087Z,100311.28
2023-03-30T22:56:00.239Z,100317.50
2023-03-30T22:58:28.423Z,100307.25
2023-03-30T23:01:02.206Z,100305.78
2023-03-30T23:03:30.660Z,100316.25
2023-03-30T23:06:01.188Z,100315.13
2023-03-30T23:08:30.524Z,100318.22
2023-03-30T23:11:04.856Z,100311.78
2023-03-30T23:13:37.612Z,100300.09
2023-03-30T23:16:08.388Z,100311.09
2023-03-30T23:18:36.545Z,100301.13
2023-03-30T23:21:06.800Z,100303.44
2023-03-30T23:23:35.358Z,100297.19
2023-03-30T23:26:08.798Z,100293.38
2023-03-30T23:28:39.579Z,100287.97
2023-03-30T23:31:10.178Z,100293.69
2023-03-30T23:33:38.075Z,100285.16
2023-03-30T23:36:07.325Z,100287.25
2023-03-30T23:38:36.022Z,100283.88
2023-03-30T23:41:04.190Z,100285.03
2023-03-30T23:43:32.108Z,100275.78
2023-03-30T23:45:59.993Z,100272.41
2023-03-30T23:48:29.274Z,100279.78
2023-03-30T23:50:57.657Z,100288.81
2023-03-30T23:53:26.340Z,100283.25
2023-03-30T23:55:54.666Z,100279.81
2023-03-30T23:58:22.974Z,100274.59
